Time;durP1;ratioP1;P1;durP2;ratioP2;P2;SDS_P1;SDS_P2;PMS_P1;PMS_P2;Temp;Humidity;BMP_temperature;BMP_pressure;BME280_temperature;BME280_humidity;BME280_pressure;Samples;Min_cycle;Max_cycle;Signal;HPM_P1;HPM_P2
2023/05/07 00:00:28;;;;;;;4.90;4.05;;;;;;;;;;6185317;23;20392;-72
2023/05/07 00:02:53;;;;;;;5.45;3.88;;;;;;;;;;6186468;23;20015;-72
2023/05/07 00:05:19;;;;;;;5.70;3.75;;;;;;;;;;6186858;23;20083;-73
2023/05/07 00:07:44;;;;;;;7.72;3.25;;;;;;;;;;6184716;23;20004;-73
2023/05/07 00:10:10;;;;;;;5.65;3.25;;;;;;;;;;6186903;23;20331;-72
2023/05/07 00:12:35;;;;;;;6.90;3.65;;;;;;;;;;6186558;23;20450;-72
2023/05/07 00:15:03;;;;;;;4.07;2.95;;;;;;;;;;6185403;23;20015;-73
2023/05/07 00:17:29;;;;;;;4.30;3.08;;;;;;;;;;6186127;23;20001;-73
2023/05/07 00:19:54;;;;;;;4.78;3.25;;;;;;;;;;6184370;23;20009;-72
2023/05/07 00:22:19;;;;;;;5.00;2.95;;;;;;;;;;6183932;23;20309;-73
2023/05/07 00:24:45;;;;;;;5.40;3.30;;;;;;;;;;6181868;23;20092;-72
2023/05/07 00:27:10;;;;;;;5.30;3.30;;;;;;;;;;6184331;23;20412;-72
2023/05/07 00:29:36;;;;;;;4.32;2.85;;;;;;;;;;6185362;23;20096;-72
2023/05/07 00:32:01;;;;;;;5.47;3.20;;;;;;;;;;6185004;23;20059;-72
2023/05/07 00:34:27;;;;;;;6.68;3.50;;;;;;;;;;6207132;23;20009;-72
2023/05/07 00:36:53;;;;;;;5.40;3.33;;;;;;;;;;6183344;23;20001;-73
2023/05/07 00:39:18;;;;;;;5.40;3.75;;;;;;;;;;6185815;23;20335;-72
2023/05/07 00:41:43;;;;;;;4.90;3.53;;;;;;;;;;6184334;23;20435;-72
2023/05/07 00:44:09;;;;;;;5.63;3.63;;;;;;;;;;6183252;23;20005;-73
2023/05/07 00:46:34;;;;;;;5.43;3.70;;;;;;;;;;6183876;23;20012;-74
2023/05/07 00:49:00;;;;;;;4.72;3.45;;;;;;;;;;6185736;23;19996;-73
2023/05/07 00:51:27;;;;;;;5.60;4.20;;;;;;;;;;6185430;23;20331;-74
2023/05/07 00:53:53;;;;;;;5.55;3.92;;;;;;;;;;6185914;23;20052;-73
2023/05/07 00:56:23;;;;;;;5.80;4.18;;;;;;;;;;6184118;23;20033;-72
2023/05/07 00:58:49;;;;;;;5.32;3.83;;;;;;;;;;6185155;23;20001;-73
2023/05/07 01:01:16;;;;;;;4.90;3.83;;;;;;;;;;6184849;23;20336;-72
2023/05/07 01:03:42;;;;;;;6.75;4.15;;;;;;;;;;6185104;23;20001;-72
2023/05/07 01:06:08;;;;;;;6.63;4.72;;;;;;;;;;6185696;23;20336;-72
2023/05/07 01:08:34;;;;;;;5.93;3.97;;;;;;;;;;6183897;23;20055;-73
2023/05/07 01:11:01;;;;;;;5.68;4.00;;;;;;;;;;6183598;23;20016;-72
2023/05/07 01:13:27;;;;;;;5.50;4.28;;;;;;;;;;6184984;23;20028;-72
2023/05/07 01:15:53;;;;;;;6.15;4.45;;;;;;;;;;6184321;23;20309;-73
2023/05/07 01:18:18;;;;;;;7.20;4.80;;;;;;;;;;6183499;23;20012;-72
2023/05/07 01:20:44;;;;;;;6.47;4.63;;;;;;;;;;6184409;23;20011;-73
2023/05/07 01:23:11;;;;;;;6.45;4.45;;;;;;;;;;6182478;23;20113;-72
2023/05/07 01:25:36;;;;;;;5.80;4.32;;;;;;;;;;6182171;23;20013;-74
2023/05/07 01:28:02;;;;;;;6.93;4.78;;;;;;;;;;6183684;23;20008;-73
2023/05/07 01:30:29;;;;;;;8.13;5.40;;;;;;;;;;6182019;23;20012;-72
2023/05/07 01:33:06;;;;;;;6.70;5.30;;;;;;;;;;6184731;23;20055;-72
2023/05/07 01:35:37;;;;;;;7.55;4.57;;;;;;;;;;6184936;23;20005;-72
2023/05/07 01:38:05;;;;;;;6.95;4.97;;;;;;;;;;6185000;23;20037;-73
2023/05/07 01:40:31;;;;;;;6.45;4.90;;;;;;;;;;6183391;23;20143;-73
2023/05/07 01:42:57;;;;;;;8.65;6.47;;;;;;;;;;6185019;23;20040;-72
2023/05/07 01:45:23;;;;;;;10.25;5.88;;;;;;;;;;6184219;23;20083;-72
2023/05/07 01:47:49;;;;;;;7.22;5.30;;;;;;;;;;6183712;23;20007;-73
2023/05/07 01:50:17;;;;;;;8.18;6.10;;;;;;;;;;6183209;23;20009;-72
2023/05/07 01:52:42;;;;;;;9.80;6.80;;;;;;;;;;6184788;23;20379;-73
2023/05/07 01:55:08;;;;;;;10.20;6.20;;;;;;;;;;6183710;23;20009;-72
2023/05/07 01:57:33;;;;;;;8.32;6.53;;;;;;;;;;6183351;23;20028;-72
2023/05/07 01:59:59;;;;;;;8.07;6.55;;;;;;;;;;6184223;23;20447;-72
2023/05/07 02:02:24;;;;;;;9.60;6.18;;;;;;;;;;6183961;23;20009;-73
2023/05/07 02:04:50;;;;;;;8.48;6.60;;;;;;;;;;6182276;23;20001;-72
2023/05/07 02:07:15;;;;;;;9.63;7.13;;;;;;;;;;6182227;23;20466;-73
2023/05/07 02:09:41;;;;;;;8.75;6.90;;;;;;;;;;6182476;23;20092;-72
2023/05/07 02:12:06;;;;;;;8.68;7.20;;;;;;;;;;6181150;23;20040;-72
2023/05/07 02:14:31;;;;;;;11.00;8.73;;;;;;;;;;6184489;23;20331;-72
2023/05/07 02:16:56;;;;;;;9.82;7.50;;;;;;;;;;6157912;23;20009;-73
2023/05/07 02:19:22;;;;;;;10.63;7.47;;;;;;;;;;6183841;23;20023;-73
2023/05/07 02:21:47;;;;;;;10.50;7.40;;;;;;;;;;6184336;23;20029;-73
2023/05/07 02:24:13;;;;;;;10.88;8.35;;;;;;;;;;6183603;23;20012;-72
2023/05/07 02:26:40;;;;;;;9.85;7.90;;;;;;;;;;6182002;23;20011;-72
2023/05/07 02:29:06;;;;;;;15.02;8.35;;;;;;;;;;6185039;23;20012;-73
2023/05/07 02:31:33;;;;;;;11.35;7.88;;;;;;;;;;6185083;23;20289;-73
2023/05/07 02:33:59;;;;;;;10.25;7.68;;;;;;;;;;6184910;23;20008;-72
2023/05/07 02:36:24;;;;;;;13.00;7.22;;;;;;;;;;6183561;23;20332;-73
2023/05/07 02:38:49;;;;;;;10.10;8.45;;;;;;;;;;6182723;23;20040;-73
2023/05/07 02:41:15;;;;;;;9.00;6.93;;;;;;;;;;6181603;23;20388;-73
2023/05/07 02:43:40;;;;;;;12.98;8.10;;;;;;;;;;6182705;23;20456;-72
2023/05/07 02:46:07;;;;;;;11.88;8.00;;;;;;;;;;6184856;23;20009;-72
2023/05/07 02:48:33;;;;;;;9.45;6.78;;;;;;;;;;6182627;23;20492;-73
2023/05/07 02:50:59;;;;;;;10.27;6.82;;;;;;;;;;6182825;23;20009;-74
2023/05/07 02:53:26;;;;;;;7.53;6.32;;;;;;;;;;6205439;23;20016;-73
2023/05/07 02:55:59;;;;;;;10.30;7.57;;;;;;;;;;6181091;23;20005;-73
2023/05/07 02:58:25;;;;;;;10.52;6.57;;;;;;;;;;6184201;23;20001;-72
2023/05/07 03:00:51;;;;;;;9.77;6.75;;;;;;;;;;6183704;23;20032;-73
2023/05/07 03:03:16;;;;;;;10.30;7.32;;;;;;;;;;6183493;23;20013;-72
2023/05/07 03:05:42;;;;;;;9.52;6.47;;;;;;;;;;6182997;23;20029;-73
2023/05/07 03:08:08;;;;;;;7.80;6.47;;;;;;;;;;6184000;23;20011;-72
2023/05/07 03:10:33;;;;;;;8.90;6.72;;;;;;;;;;6184447;23;20063;-73
2023/05/07 03:12:59;;;;;;;9.88;7.25;;;;;;;;;;6179506;23;20016;-74
2023/05/07 03:15:25;;;;;;;10.65;7.68;;;;;;;;;;6182762;23;20008;-72
2023/05/07 03:17:50;;;;;;;8.82;6.90;;;;;;;;;;6183499;23;20335;-72
2023/05/07 03:20:16;;;;;;;9.70;6.88;;;;;;;;;;6183028;23;20012;-73
2023/05/07 03:22:41;;;;;;;9.25;7.18;;;;;;;;;;6182456;23;20024;-73
2023/05/07 03:25:08;;;;;;;9.60;7.32;;;;;;;;;;6182822;23;20001;-73
2023/05/07 03:27:34;;;;;;;8.07;6.57;;;;;;;;;;6182575;23;20001;-72
2023/05/07 03:30:00;;;;;;;11.00;7.45;;;;;;;;;;6182831;23;20073;-73
2023/05/07 03:32:25;;;;;;;9.18;7.35;;;;;;;;;;6183604;23;20004;-73
2023/05/07 03:34:51;;;;;;;8.65;7.72;;;;;;;;;;6183655;23;20005;-72
2023/05/07 03:37:16;;;;;;;9.80;7.15;;;;;;;;;;6184679;23;20012;-72
2023/05/07 03:39:42;;;;;;;12.32;8.68;;;;;;;;;;6183848;23;20005;-74
2023/05/07 03:42:07;;;;;;;10.43;8.20;;;;;;;;;;6181904;23;20016;-73
2023/05/07 03:44:32;;;;;;;11.73;8.38;;;;;;;;;;6184402;23;20001;-74
2023/05/07 03:46:58;;;;;;;10.15;8.23;;;;;;;;;;6157927;23;20329;-72
2023/05/07 03:49:23;;;;;;;11.18;8.70;;;;;;;;;;6184115;23;20005;-74
2023/05/07 03:51:48;;;;;;;9.93;8.35;;;;;;;;;;6183456;23;20008;-73
2023/05/07 03:54:14;;;;;;;11.52;8.30;;;;;;;;;;6184232;23;20008;-72
2023/05/07 03:56:39;;;;;;;9.98;7.78;;;;;;;;;;6183401;23;20009;-72
2023/05/07 03:59:05;;;;;;;12.10;8.38;;;;;;;;;;6182038;23;20007;-73
2023/05/07 04:01:30;;;;;;;10.30;7.97;;;;;;;;;;6182233;23;20005;-73
2023/05/07 04:03:55;;;;;;;11.32;8.85;;;;;;;;;;6183867;23;20012;-72
2023/05/07 04:06:21;;;;;;;9.35;7.75;;;;;;;;;;6183313;23;20001;-72
2023/05/07 04:08:46;;;;;;;10.38;8.00;;;;;;;;;;6182058;23;20009;-73
2023/05/07 04:11:11;;;;;;;10.05;7.30;;;;;;;;;;6183783;23;20044;-72
2023/05/07 04:13:37;;;;;;;9.52;6.90;;;;;;;;;;6184258;23;20276;-73
2023/05/07 04:16:03;;;;;;;9.75;7.43;;;;;;;;;;6183259;23;20021;-73
2023/05/07 04:18:29;;;;;;;10.10;7.70;;;;;;;;;;6179732;23;20013;-73
2023/05/07 04:20:54;;;;;;;11.18;7.60;;;;;;;;;;6183305;23;20313;-74
2023/05/07 04:23:20;;;;;;;11.02;7.47;;;;;;;;;;6183090;23;20005;-73
2023/05/07 04:25:45;;;;;;;11.70;8.38;;;;;;;;;;6183026;23;20062;-73
2023/05/07 04:28:12;;;;;;;10.23;7.80;;;;;;;;;;6182266;23;20009;-73
2023/05/07 04:30:37;;;;;;;9.15;7.50;;;;;;;;;;6184075;23;20005;-75
2023/05/07 04:33:03;;;;;;;12.13;8.07;;;;;;;;;;6184391;23;20004;-72
2023/05/07 04:35:28;;;;;;;10.07;7.85;;;;;;;;;;6181549;23;20037;-73
2023/05/07 04:37:54;;;;;;;11.25;8.30;;;;;;;;;;6181675;23;20001;-73
2023/05/07 04:40:19;;;;;;;9.32;7.35;;;;;;;;;;6183253;23;20055;-73
2023/05/07 04:42:45;;;;;;;10.25;8.13;;;;;;;;;;6183667;23;20011;-72
2023/05/07 04:45:10;;;;;;;11.27;8.15;;;;;;;;;;6184594;23;20035;-73
2023/05/07 04:47:36;;;;;;;11.93;8.05;;;;;;;;;;6185635;23;20106;-72
2023/05/07 04:50:01;;;;;;;9.07;7.80;;;;;;;;;;6185607;23;20391;-72
2023/05/07 04:52:27;;;;;;;10.57;8.30;;;;;;;;;;6184312;23;20005;-73
2023/05/07 04:54:52;;;;;;;10.85;8.60;;;;;;;;;;6184719;23;20332;-73
2023/05/07 04:57:18;;;;;;;10.23;8.30;;;;;;;;;;6186002;23;20013;-73
2023/05/07 04:59:44;;;;;;;11.98;8.30;;;;;;;;;;6183360;23;20048;-73
2023/05/07 05:02:12;;;;;;;10.23;8.48;;;;;;;;;;6185201;23;20420;-72
2023/05/07 05:04:37;;;;;;;10.25;8.48;;;;;;;;;;6186327;23;20439;-73
2023/05/07 05:07:05;;;;;;;12.32;8.40;;;;;;;;;;6185571;23;20001;-74
2023/05/07 05:09:31;;;;;;;10.15;8.38;;;;;;;;;;6182393;23;20095;-75
2023/05/07 05:11:56;;;;;;;9.77;8.00;;;;;;;;;;6184162;23;20099;-73
2023/05/07 05:14:21;;;;;;;12.10;8.88;;;;;;;;;;6184986;23;20071;-73
2023/05/07 05:16:47;;;;;;;13.38;8.93;;;;;;;;;;6182613;23;20012;-74
2023/05/07 05:19:12;;;;;;;11.48;9.10;;;;;;;;;;6182442;23;20032;-73
2023/05/07 05:21:37;;;;;;;11.52;9.32;;;;;;;;;;6185331;23;20004;-73
2023/05/07 05:24:03;;;;;;;13.40;10.35;;;;;;;;;;6184448;23;20005;-73
2023/05/07 05:26:28;;;;;;;15.18;10.18;;;;;;;;;;6184815;23;20001;-73
2023/05/07 05:28:53;;;;;;;12.02;9.18;;;;;;;;;;6182392;23;20372;-73
2023/05/07 05:31:19;;;;;;;12.50;8.95;;;;;;;;;;6183468;23;20005;-73
2023/05/07 05:33:44;;;;;;;11.93;9.38;;;;;;;;;;6182577;23;20089;-72
2023/05/07 05:36:10;;;;;;;12.88;9.13;;;;;;;;;;6184025;23;20005;-72
2023/05/07 05:38:36;;;;;;;14.85;9.50;;;;;;;;;;6181466;23;20009;-74
2023/05/07 05:41:01;;;;;;;15.18;9.90;;;;;;;;;;6183368;23;20056;-73
2023/05/07 05:43:26;;;;;;;13.32;10.07;;;;;;;;;;6183400;23;20008;-75
2023/05/07 05:45:52;;;;;;;12.82;9.57;;;;;;;;;;6159399;23;20080;-74
2023/05/07 05:48:17;;;;;;;13.75;9.57;;;;;;;;;;6182106;23;20029;-73
2023/05/07 05:50:42;;;;;;;12.07;9.32;;;;;;;;;;6183735;23;20428;-72
2023/05/07 05:53:08;;;;;;;15.15;9.75;;;;;;;;;;6183489;23;20047;-73
2023/05/07 05:55:33;;;;;;;14.32;10.05;;;;;;;;;;6183029;23;20079;-73
2023/05/07 05:58:00;;;;;;;12.75;9.50;;;;;;;;;;6183047;23;20005;-73
2023/05/07 06:00:26;;;;;;;12.77;9.77;;;;;;;;;;6184046;23;20001;-73
2023/05/07 06:02:52;;;;;;;12.45;9.52;;;;;;;;;;6182898;23;20424;-72
2023/05/07 06:05:17;;;;;;;15.68;10.43;;;;;;;;;;6185508;23;20007;-73
2023/05/07 06:07:42;;;;;;;12.38;10.15;;;;;;;;;;6184589;23;20007;-73
2023/05/07 06:10:08;;;;;;;12.82;9.20;;;;;;;;;;6185200;23;20001;-72
2023/05/07 06:12:33;;;;;;;13.77;10.00;;;;;;;;;;6182652;23;20013;-73
2023/05/07 06:14:58;;;;;;;13.40;9.93;;;;;;;;;;6184102;23;20016;-73
2023/05/07 06:17:24;;;;;;;15.02;10.25;;;;;;;;;;6179024;23;20001;-74
2023/05/07 06:19:49;;;;;;;13.75;10.02;;;;;;;;;;6183047;23;20013;-73
2023/05/07 06:22:14;;;;;;;10.68;8.88;;;;;;;;;;6184999;23;20008;-72
2023/05/07 06:24:40;;;;;;;13.13;10.07;;;;;;;;;;6181880;23;20083;-74
2023/05/07 06:27:05;;;;;;;14.30;9.48;;;;;;;;;;6182708;23;20431;-73
2023/05/07 06:29:32;;;;;;;14.10;10.35;;;;;;;;;;6184313;23;20313;-73
2023/05/07 06:32:07;;;;;;;13.60;10.07;;;;;;;;;;6183614;23;20116;-72
2023/05/07 06:34:32;;;;;;;12.20;9.27;;;;;;;;;;6183688;23;20131;-73
2023/05/07 06:36:58;;;;;;;12.98;9.95;;;;;;;;;;6180446;23;20079;-73
2023/05/07 06:39:23;;;;;;;14.57;10.13;;;;;;;;;;6181329;23;20009;-72
2023/05/07 06:41:49;;;;;;;14.38;10.18;;;;;;;;;;6182331;23;20455;-72
2023/05/07 06:44:15;;;;;;;13.35;10.10;;;;;;;;;;6183232;23;20008;-73
2023/05/07 06:46:41;;;;;;;11.35;9.55;;;;;;;;;;6182533;23;20008;-73
2023/05/07 06:49:06;;;;;;;12.65;10.75;;;;;;;;;;6183081;23;20001;-73
2023/05/07 06:51:31;;;;;;;12.32;9.35;;;;;;;;;;6181479;23;20009;-73
2023/05/07 06:53:56;;;;;;;12.85;9.40;;;;;;;;;;6181963;23;20376;-73
2023/05/07 06:56:22;;;;;;;13.23;11.00;;;;;;;;;;6183286;23;20009;-73
2023/05/07 06:58:48;;;;;;;14.10;11.13;;;;;;;;;;6184203;23;20001;-73
2023/05/07 07:01:13;;;;;;;13.20;10.38;;;;;;;;;;6183509;23;20004;-73
2023/05/07 07:03:38;;;;;;;13.93;10.60;;;;;;;;;;6182798;23;20009;-73
2023/05/07 07:06:04;;;;;;;13.55;10.55;;;;;;;;;;6205891;23;20313;-74
2023/05/07 07:08:29;;;;;;;14.38;11.23;;;;;;;;;;6184780;23;20001;-72
2023/05/07 07:10:55;;;;;;;12.93;10.07;;;;;;;;;;6183046;23;20009;-72
2023/05/07 07:13:20;;;;;;;15.15;10.73;;;;;;;;;;6183530;23;20080;-72
2023/05/07 07:15:46;;;;;;;12.10;9.20;;;;;;;;;;6182468;23;20100;-73
2023/05/07 07:18:11;;;;;;;14.30;9.88;;;;;;;;;;6183760;23;20037;-73
2023/05/07 07:20:36;;;;;;;13.63;10.57;;;;;;;;;;6181518;23;20502;-73
2023/05/07 07:23:02;;;;;;;15.35;9.95;;;;;;;;;;6206366;23;20001;-72
2023/05/07 07:25:27;;;;;;;11.77;9.85;;;;;;;;;;6206334;23;20012;-72
2023/05/07 07:27:52;;;;;;;12.45;9.93;;;;;;;;;;6182526;23;19997;-73
2023/05/07 07:30:18;;;;;;;12.80;10.65;;;;;;;;;;6182912;23;20009;-73
2023/05/07 07:32:43;;;;;;;11.35;9.98;;;;;;;;;;6183202;23;20076;-72
2023/05/07 07:35:08;;;;;;;14.23;10.63;;;;;;;;;;6183054;23;20324;-72
2023/05/07 07:37:34;;;;;;;13.23;10.45;;;;;;;;;;6182160;23;20332;-73
2023/05/07 07:39:59;;;;;;;13.68;11.90;;;;;;;;;;6184635;23;20000;-74
2023/05/07 07:42:25;;;;;;;13.05;11.27;;;;;;;;;;6181546;23;20067;-73
2023/05/07 07:44:50;;;;;;;14.35;11.43;;;;;;;;;;6181148;23;20009;-73
2023/05/07 07:47:16;;;;;;;14.43;11.65;;;;;;;;;;6181972;23;20001;-76
2023/05/07 07:49:41;;;;;;;14.60;10.80;;;;;;;;;;6182719;23;20001;-72
2023/05/07 07:52:06;;;;;;;14.95;11.60;;;;;;;;;;6183963;23;20036;-72
2023/05/07 07:54:32;;;;;;;13.45;11.10;;;;;;;;;;6184506;23;20376;-74
2023/05/07 07:56:57;;;;;;;14.27;11.73;;;;;;;;;;6182309;23;20109;-73
2023/05/07 07:59:23;;;;;;;13.50;11.88;;;;;;;;;;6182250;23;20451;-73
2023/05/07 08:01:50;;;;;;;14.98;13.02;;;;;;;;;;6182343;23;20035;-72
2023/05/07 08:04:15;;;;;;;14.25;11.50;;;;;;;;;;6181384;23;20009;-72
2023/05/07 08:06:41;;;;;;;14.48;11.57;;;;;;;;;;6184805;23;20032;-73
2023/05/07 08:09:06;;;;;;;12.65;11.20;;;;;;;;;;6182338;23;20454;-73
2023/05/07 08:11:31;;;;;;;13.10;11.48;;;;;;;;;;6184605;23;20013;-72
2023/05/07 08:13:57;;;;;;;15.13;11.52;;;;;;;;;;6182483;23;20040;-73
2023/05/07 08:16:22;;;;;;;14.38;11.50;;;;;;;;;;6181805;23;20005;-73
2023/05/07 08:18:47;;;;;;;15.55;11.80;;;;;;;;;;6183868;23;20012;-73
2023/05/07 08:21:13;;;;;;;14.32;11.48;;;;;;;;;;6185728;23;20001;-72
2023/05/07 08:23:38;;;;;;;14.50;11.80;;;;;;;;;;6183511;23;20013;-73
2023/05/07 08:26:04;;;;;;;14.75;11.32;;;;;;;;;;6183399;23;20031;-72
2023/05/07 08:28:29;;;;;;;14.85;12.07;;;;;;;;;;6184635;23;20079;-73
2023/05/07 08:30:56;;;;;;;14.73;12.45;;;;;;;;;;6186018;23;20007;-73
2023/05/07 08:33:21;;;;;;;16.70;12.80;;;;;;;;;;6185487;23;20001;-72
2023/05/07 08:35:47;;;;;;;15.50;12.25;;;;;;;;;;6185081;23;20020;-73
2023/05/07 08:38:12;;;;;;;16.35;12.65;;;;;;;;;;6182651;23;20011;-73
2023/05/07 08:40:39;;;;;;;14.60;12.18;;;;;;;;;;6184755;23;20080;-73
2023/05/07 08:43:05;;;;;;;14.18;11.93;;;;;;;;;;6185242;23;20009;-74
2023/05/07 08:45:33;;;;;;;15.07;12.82;;;;;;;;;;6183213;23;20037;-72
2023/05/07 08:48:01;;;;;;;14.52;12.25;;;;;;;;;;6182558;23;20009;-73
2023/05/07 08:50:26;;;;;;;15.88;11.70;;;;;;;;;;6184366;23;20082;-73
2023/05/07 08:52:52;;;;;;;14.73;11.68;;;;;;;;;;6183592;23;20009;-75
2023/05/07 08:55:18;;;;;;;14.93;11.57;;;;;;;;;;6185125;23;20005;-73
2023/05/07 08:57:43;;;;;;;14.35;11.27;;;;;;;;;;6185068;23;20005;-73
2023/05/07 09:00:09;;;;;;;15.27;11.55;;;;;;;;;;6182714;23;20031;-73
2023/05/07 09:02:36;;;;;;;14.43;12.25;;;;;;;;;;6181983;23;20039;-72
2023/05/07 09:05:01;;;;;;;14.90;11.65;;;;;;;;;;6185475;23;20001;-73
2023/05/07 09:07:27;;;;;;;14.02;11.02;;;;;;;;;;6183467;23;20514;-72
2023/05/07 09:09:54;;;;;;;14.00;11.45;;;;;;;;;;6181800;23;20001;-73
2023/05/07 09:12:21;;;;;;;14.43;11.20;;;;;;;;;;6186186;23;20088;-74
2023/05/07 09:14:46;;;;;;;15.13;10.63;;;;;;;;;;6182460;23;20379;-75
2023/05/07 09:17:12;;;;;;;14.57;10.30;;;;;;;;;;6158146;23;20016;-75
2023/05/07 09:19:37;;;;;;;13.70;10.90;;;;;;;;;;6182764;23;20005;-76
2023/05/07 09:22:04;;;;;;;13.13;9.82;;;;;;;;;;6180594;23;20067;-75
2023/05/07 09:24:34;;;;;;;12.27;10.55;;;;;;;;;;6183632;23;20001;-75
2023/05/07 09:27:01;;;;;;;13.05;9.98;;;;;;;;;;6184259;23;20036;-75
2023/05/07 09:29:28;;;;;;;13.80;11.05;;;;;;;;;;6181888;23;20005;-75
2023/05/07 09:31:54;;;;;;;13.20;10.38;;;;;;;;;;6179570;23;20001;-75
2023/05/07 09:34:19;;;;;;;14.40;10.70;;;;;;;;;;6180711;23;20011;-75
2023/05/07 09:36:45;;;;;;;12.57;10.18;;;;;;;;;;6182630;23;20332;-75
2023/05/07 09:39:10;;;;;;;14.23;10.80;;;;;;;;;;6182231;23;20016;-75
2023/05/07 09:41:47;;;;;;;13.90;11.15;;;;;;;;;;6180547;23;20428;-75
2023/05/07 09:44:14;;;;;;;12.95;10.60;;;;;;;;;;6177969;23;20006;-75
2023/05/07 09:46:42;;;;;;;13.85;10.80;;;;;;;;;;6184089;23;20388;-75
2023/05/07 09:49:13;;;;;;;13.95;11.02;;;;;;;;;;6182493;23;20004;-75
2023/05/07 09:52:00;;;;;;;12.65;10.25;;;;;;;;;;6181816;23;20058;-75
2023/05/07 09:54:27;;;;;;;12.68;11.35;;;;;;;;;;6183637;23;20012;-75
2023/05/07 09:56:55;;;;;;;11.80;10.25;;;;;;;;;;6183119;23;20321;-76
2023/05/07 09:59:22;;;;;;;11.40;10.00;;;;;;;;;;6178975;23;20057;-75
2023/05/07 10:01:48;;;;;;;14.93;11.23;;;;;;;;;;6181384;23;20015;-75
2023/05/07 10:04:14;;;;;;;11.93;10.18;;;;;;;;;;6181220;23;20013;-75
2023/05/07 10:06:40;;;;;;;14.40;11.63;;;;;;;;;;6183427;23;20001;-76
2023/05/07 10:09:06;;;;;;;14.30;11.30;;;;;;;;;;6182194;23;20091;-75
2023/05/07 10:11:35;;;;;;;12.20;10.60;;;;;;;;;;6182329;23;20032;-75
2023/05/07 10:14:02;;;;;;;12.27;10.27;;;;;;;;;;6181937;23;20403;-75
2023/05/07 10:16:30;;;;;;;11.10;9.90;;;;;;;;;;6183782;23;20024;-75
2023/05/07 10:18:58;;;;;;;13.23;10.00;;;;;;;;;;6183017;23;20016;-75
2023/05/07 10:21:23;;;;;;;12.25;9.50;;;;;;;;;;6182479;23;20063;-75
2023/05/07 10:24:10;;;;;;;11.35;10.15;;;;;;;;;;6182338;23;20005;-75
2023/05/07 10:26:35;;;;;;;14.13;9.98;;;;;;;;;;6181685;23;20406;-75
2023/05/07 10:29:13;;;;;;;11.50;10.27;;;;;;;;;;6183155;23;20080;-75
2023/05/07 10:31:41;;;;;;;12.05;9.90;;;;;;;;;;6183774;23;20376;-76
2023/05/07 10:34:10;;;;;;;11.80;9.55;;;;;;;;;;6182062;23;20005;-75
2023/05/07 10:36:36;;;;;;;11.25;9.13;;;;;;;;;;6179666;23;20112;-76
2023/05/07 10:39:02;;;;;;;12.63;8.77;;;;;;;;;;6182052;23;20456;-75
2023/05/07 10:41:28;;;;;;;13.60;9.43;;;;;;;;;;6183772;23;20016;-75
2023/05/07 10:43:53;;;;;;;10.70;8.60;;;;;;;;;;6180557;23;20004;-75
2023/05/07 10:46:20;;;;;;;9.80;8.38;;;;;;;;;;6180848;23;20012;-75
2023/05/07 10:49:01;;;;;;;9.98;7.93;;;;;;;;;;6180177;23;20463;-76
2023/05/07 10:51:27;;;;;;;9.55;7.47;;;;;;;;;;6178488;23;20035;-75
2023/05/07 10:54:11;;;;;;;9.52;7.55;;;;;;;;;;6176926;23;20047;-75
2023/05/07 10:56:43;;;;;;;9.48;7.50;;;;;;;;;;6181390;23;20059;-75
2023/05/07 10:59:20;;;;;;;9.25;8.20;;;;;;;;;;6183255;23;20076;-75
2023/05/07 11:01:54;;;;;;;9.50;7.07;;;;;;;;;;6182537;23;20008;-75
2023/05/07 11:04:25;;;;;;;12.02;8.43;;;;;;;;;;6180963;23;20015;-75
2023/05/07 11:07:06;;;;;;;10.77;8.50;;;;;;;;;;6180305;23;20340;-75
2023/05/07 11:10:03;;;;;;;12.48;9.40;;;;;;;;;;6179170;23;20084;-74
2023/05/07 11:12:38;;;;;;;10.40;8.00;;;;;;;;;;6163851;23;20013;-75
2023/05/07 11:15:10;;;;;;;10.43;9.18;;;;;;;;;;6179906;23;20005;-75
2023/05/07 11:17:56;;;;;;;11.70;9.70;;;;;;;;;;6183294;23;20009;-74
2023/05/07 11:20:50;;;;;;;9.57;8.52;;;;;;;;;;6182112;23;20083;-75
2023/05/07 11:23:33;;;;;;;10.27;8.13;;;;;;;;;;6182929;23;20462;-75
2023/05/07 11:26:00;;;;;;;10.05;8.15;;;;;;;;;;6177975;23;20435;-75
2023/05/07 11:28:27;;;;;;;12.20;10.02;;;;;;;;;;6180932;23;20012;-75
2023/05/07 11:30:53;;;;;;;11.63;10.23;;;;;;;;;;6180361;23;20163;-75
2023/05/07 11:33:19;;;;;;;12.30;10.50;;;;;;;;;;6181235;23;20499;-75
2023/05/07 11:35:45;;;;;;;13.90;11.10;;;;;;;;;;6181876;23;20008;-75
2023/05/07 11:38:12;;;;;;;13.30;11.73;;;;;;;;;;6183334;23;20008;-75
2023/05/07 11:40:50;;;;;;;14.38;12.00;;;;;;;;;;6182184;23;20017;-75
2023/05/07 11:43:16;;;;;;;13.55;11.68;;;;;;;;;;6180601;23;20492;-75
2023/05/07 11:45:41;;;;;;;14.02;12.13;;;;;;;;;;6181801;23;20120;-75
2023/05/07 11:48:07;;;;;;;14.10;11.35;;;;;;;;;;6207344;23;20400;-74
2023/05/07 11:50:32;;;;;;;14.18;11.77;;;;;;;;;;6180958;23;20001;-75
2023/05/07 11:52:57;;;;;;;14.85;13.07;;;;;;;;;;6183191;23;20043;-75
2023/05/07 11:55:24;;;;;;;15.02;12.65;;;;;;;;;;6184866;23;20088;-75
2023/05/07 11:57:50;;;;;;;15.52;12.48;;;;;;;;;;6183222;23;20001;-75
2023/05/07 12:00:16;;;;;;;14.40;12.65;;;;;;;;;;6185197;23;20001;-74
2023/05/07 12:02:42;;;;;;;13.05;11.65;;;;;;;;;;6181701;23;20063;-75
2023/05/07 12:05:07;;;;;;;13.82;12.23;;;;;;;;;;6180781;23;20017;-74
2023/05/07 12:07:34;;;;;;;15.13;12.57;;;;;;;;;;6182619;23;20008;-75
2023/05/07 12:10:03;;;;;;;16.88;11.95;;;;;;;;;;6184444;23;20009;-74
2023/05/07 12:12:29;;;;;;;15.20;11.85;;;;;;;;;;6183396;23;20051;-76
2023/05/07 12:14:54;;;;;;;13.93;12.40;;;;;;;;;;6184387;23;20432;-75
2023/05/07 12:17:20;;;;;;;15.93;12.90;;;;;;;;;;6182377;23;20005;-75
2023/05/07 12:19:46;;;;;;;15.90;12.85;;;;;;;;;;6181900;23;20005;-75
2023/05/07 12:22:12;;;;;;;16.17;12.88;;;;;;;;;;6184607;23;20009;-74
2023/05/07 12:24:48;;;;;;;15.75;13.10;;;;;;;;;;6181515;23;20075;-74
2023/05/07 12:27:14;;;;;;;14.52;12.38;;;;;;;;;;6184627;23;20075;-75
2023/05/07 12:29:44;;;;;;;13.15;11.73;;;;;;;;;;6181077;23;20087;-75
2023/05/07 12:32:16;;;;;;;14.82;11.13;;;;;;;;;;6181925;23;20009;-74
2023/05/07 12:34:42;;;;;;;13.32;11.13;;;;;;;;;;6181665;23;20008;-75
2023/05/07 12:37:07;;;;;;;15.07;12.52;;;;;;;;;;6182393;23;20005;-75
2023/05/07 12:39:33;;;;;;;15.45;12.25;;;;;;;;;;6183715;23;20436;-75
2023/05/07 12:41:59;;;;;;;15.20;11.40;;;;;;;;;;6181380;23;20009;-75
2023/05/07 12:44:28;;;;;;;16.33;11.02;;;;;;;;;;6183005;23;20001;-74
2023/05/07 12:46:54;;;;;;;15.07;11.15;;;;;;;;;;6184538;23;20000;-75
2023/05/07 12:49:20;;;;;;;14.85;11.18;;;;;;;;;;6181526;23;20001;-75
2023/05/07 12:51:47;;;;;;;13.35;11.20;;;;;;;;;;6182396;23;20020;-75
2023/05/07 12:54:12;;;;;;;15.88;11.38;;;;;;;;;;6182578;23;20020;-74
2023/05/07 12:56:39;;;;;;;13.82;11.00;;;;;;;;;;6184153;23;20009;-74
2023/05/07 12:59:04;;;;;;;13.13;10.15;;;;;;;;;;6183553;23;20005;-74
2023/05/07 13:01:31;;;;;;;11.90;10.00;;;;;;;;;;6156308;23;20320;-74
2023/05/07 13:04:00;;;;;;;14.55;9.77;;;;;;;;;;6181388;23;20431;-74
2023/05/07 13:06:26;;;;;;;10.50;8.50;;;;;;;;;;6183351;23;20001;-74
2023/05/07 13:08:51;;;;;;;10.65;8.27;;;;;;;;;;6183998;23;20085;-74
2023/05/07 13:11:16;;;;;;;12.80;8.38;;;;;;;;;;6181515;23;20013;-75
2023/05/07 13:13:42;;;;;;;11.35;8.77;;;;;;;;;;6179862;23;20511;-74
2023/05/07 13:16:09;;;;;;;11.10;8.30;;;;;;;;;;6180299;23;20040;-74
2023/05/07 13:18:37;;;;;;;10.60;8.02;;;;;;;;;;6181852;23;20008;-74
2023/05/07 13:21:02;;;;;;;12.25;8.68;;;;;;;;;;6182999;23;20051;-74
2023/05/07 13:23:28;;;;;;;11.27;8.60;;;;;;;;;;6181793;23;20012;-74
2023/05/07 13:25:54;;;;;;;10.68;8.23;;;;;;;;;;6182422;23;20001;-74
2023/05/07 13:28:20;;;;;;;11.43;8.27;;;;;;;;;;6183152;23;20076;-76
2023/05/07 13:30:45;;;;;;;11.48;8.15;;;;;;;;;;6181141;23;20055;-74
2023/05/07 13:33:11;;;;;;;11.52;8.68;;;;;;;;;;6181420;23;20096;-74
2023/05/07 13:35:36;;;;;;;11.57;7.65;;;;;;;;;;6181365;23;20016;-76
2023/05/07 13:38:02;;;;;;;10.50;7.93;;;;;;;;;;6179750;23;20012;-75
2023/05/07 13:40:27;;;;;;;11.93;7.95;;;;;;;;;;6184351;23;20009;-74
2023/05/07 13:42:53;;;;;;;9.50;8.20;;;;;;;;;;6182895;23;20009;-75
2023/05/07 13:45:19;;;;;;;10.02;8.23;;;;;;;;;;6174864;23;20436;-75
2023/05/07 13:47:45;;;;;;;10.48;9.20;;;;;;;;;;6180915;23;20005;-75
2023/05/07 13:50:11;;;;;;;11.73;9.00;;;;;;;;;;6182570;23;20009;-74
2023/05/07 13:52:37;;;;;;;11.38;8.82;;;;;;;;;;6179692;23;20013;-74
2023/05/07 13:55:03;;;;;;;11.55;9.15;;;;;;;;;;6181546;23;20005;-74
2023/05/07 13:57:28;;;;;;;10.68;8.85;;;;;;;;;;6181661;23;20354;-74
2023/05/07 13:59:54;;;;;;;9.50;8.23;;;;;;;;;;6206427;23;20107;-75
2023/05/07 14:02:19;;;;;;;12.48;8.65;;;;;;;;;;6183491;23;20001;-74
2023/05/07 14:04:45;;;;;;;10.30;9.07;;;;;;;;;;6182553;23;20005;-74
2023/05/07 14:07:10;;;;;;;10.50;8.80;;;;;;;;;;6206282;23;20016;-75
2023/05/07 14:09:35;;;;;;;12.43;9.10;;;;;;;;;;6181985;23;19996;-74
2023/05/07 14:12:01;;;;;;;7.65;5.80;;;;;;;;;;6183544;23;20059;-75
2023/05/07 14:14:26;;;;;;;7.38;4.60;;;;;;;;;;6179634;23;20127;-75
2023/05/07 14:16:52;;;;;;;5.60;3.30;;;;;;;;;;6179666;23;20446;-75
2023/05/07 14:19:17;;;;;;;4.75;2.85;;;;;;;;;;6172970;23;20013;-75
2023/05/07 14:21:42;;;;;;;5.95;3.00;;;;;;;;;;6173605;23;20033;-76
2023/05/07 14:24:08;;;;;;;4.90;3.15;;;;;;;;;;6173863;23;20219;-75